Time;durP1;ratioP1;P1;durP2;ratioP2;P2;SDS_P1;SDS_P2;PMS_P1;PMS_P2;Temp;Humidity;BMP_temperature;BMP_pressure;BME280_temperature;BME280_humidity;BME280_pressure;Samples;Min_cycle;Max_cycle;Signal;HPM_P1;HPM_P2
2020/12/11 00:00:36;;;;;;;18.48;12.95;;;1.20;90.80;;;;;;5070737;28;20024;-79
2020/12/11 00:03:01;;;;;;;18.50;12.32;;;1.20;91.10;;;;;;5051121;28;20040;-79
2020/12/11 00:05:27;;;;;;;20.38;13.20;;;1.20;90.90;;;;;;5072613;28;20021;-79
2020/12/11 00:07:53;;;;;;;26.10;13.48;;;1.20;90.80;;;;;;5054099;28;20123;-80
2020/12/11 00:10:18;;;;;;;19.02;12.68;;;1.20;90.80;;;;;;5055028;28;20119;-79
2020/12/11 00:12:48;;;;;;;17.58;12.40;;;1.20;90.80;;;;;;5052158;28;20044;-79
2020/12/11 00:15:14;;;;;;;19.55;12.43;;;1.20;90.70;;;;;;5055816;28;20481;-79
2020/12/11 00:17:40;;;;;;;22.77;14.55;;;1.30;90.80;;;;;;5070888;28;20119;-79
2020/12/11 00:20:06;;;;;;;20.73;13.40;;;1.20;90.70;;;;;;5049718;28;20116;-79
2020/12/11 00:22:31;;;;;;;20.23;13.60;;;1.20;90.70;;;;;;5072713;28;20017;-79
2020/12/11 00:24:57;;;;;;;21.50;14.00;;;1.20;90.70;;;;;;5088739;28;20021;-79
2020/12/11 00:27:22;;;;;;;19.60;14.23;;;1.30;90.70;;;;;;5083194;28;20029;-79
2020/12/11 00:29:48;;;;;;;19.50;12.90;;;1.30;90.70;;;;;;5071283;28;20114;-79
2020/12/11 00:32:14;;;;;;;17.95;12.60;;;1.30;90.70;;;;;;5070890;28;20097;-79
2020/12/11 00:34:40;;;;;;;24.70;14.18;;;1.20;90.70;;;;;;5071135;28;20463;-80
2020/12/11 00:37:06;;;;;;;20.90;14.27;;;1.30;91.00;;;;;;5054133;28;20036;-80
2020/12/11 00:39:33;;;;;;;18.95;12.65;;;1.30;90.70;;;;;;5056726;28;20101;-78
2020/12/11 00:41:58;;;;;;;20.40;13.13;;;1.30;90.60;;;;;;5070082;28;20056;-79
2020/12/11 00:44:24;;;;;;;20.05;13.52;;;1.30;90.60;;;;;;5054787;28;20036;-79
2020/12/11 00:46:50;;;;;;;21.83;14.05;;;1.30;90.60;;;;;;5073211;28;20032;-79
2020/12/11 00:49:16;;;;;;;20.42;12.90;;;1.30;90.60;;;;;;5066100;28;20033;-79
2020/12/11 00:51:41;;;;;;;19.25;12.95;;;1.30;90.60;;;;;;5070710;28;20024;-79
2020/12/11 00:54:07;;;;;;;24.65;14.60;;;1.30;90.60;;;;;;5054620;28;20063;-79
2020/12/11 00:56:33;;;;;;;19.65;12.57;;;1.30;90.60;;;;;;5071227;28;20665;-79
2020/12/11 00:58:58;;;;;;;18.83;13.07;;;1.30;90.60;;;;;;5049633;28;20036;-79
2020/12/11 01:01:24;;;;;;;21.05;12.80;;;1.30;90.60;;;;;;5045878;28;20055;-79
2020/12/11 01:03:49;;;;;;;19.77;12.70;;;1.30;90.60;;;;;;5070879;28;20451;-80
2020/12/11 01:06:15;;;;;;;17.52;11.82;;;1.30;90.50;;;;;;5087934;28;20032;-79
2020/12/11 01:08:41;;;;;;;20.80;13.38;;;1.30;90.60;;;;;;5069907;28;20493;-79
2020/12/11 01:11:06;;;;;;;20.83;12.73;;;1.30;90.50;;;;;;5054522;28;20035;-80
2020/12/11 01:13:32;;;;;;;22.13;13.20;;;1.30;90.50;;;;;;5050772;28;20029;-79
2020/12/11 01:15:57;;;;;;;22.00;14.15;;;1.30;90.80;;;;;;5094836;28;20584;-80
2020/12/11 01:18:23;;;;;;;19.80;12.52;;;1.30;90.80;;;;;;5070258;28;20024;-80
2020/12/11 01:20:49;;;;;;;22.00;13.30;;;1.30;90.50;;;;;;5054641;28;20110;-80
2020/12/11 01:23:14;;;;;;;21.17;13.23;;;1.30;90.50;;;;;;5054369;28;20482;-79
2020/12/11 01:25:40;;;;;;;19.95;12.30;;;1.30;90.50;;;;;;5074130;28;20036;-79
2020/12/11 01:28:05;;;;;;;18.60;12.15;;;1.30;90.60;;;;;;5061317;28;20029;-80
2020/12/11 01:30:32;;;;;;;18.50;12.25;;;1.30;90.60;;;;;;5095479;28;20043;-79
2020/12/11 01:33:01;;;;;;;20.67;12.43;;;1.40;90.50;;;;;;5108487;28;20020;-79
2020/12/11 01:35:26;;;;;;;20.27;12.57;;;1.30;90.50;;;;;;5074081;28;20473;-80
2020/12/11 01:37:52;;;;;;;20.05;12.85;;;1.40;90.50;;;;;;5073519;28;20041;-79
2020/12/11 01:40:17;;;;;;;20.38;12.80;;;1.40;90.70;;;;;;5053715;28;20452;-80
2020/12/11 01:42:43;;;;;;;19.38;12.80;;;1.30;90.50;;;;;;5063242;28;20032;-79
2020/12/11 01:45:09;;;;;;;19.15;12.27;;;1.40;90.50;;;;;;5078631;28;20484;-79
2020/12/11 01:47:39;;;;;;;18.80;13.57;;;1.40;90.50;;;;;;5077004;28;20052;-78
2020/12/11 01:50:06;;;;;;;19.17;12.65;;;1.40;90.50;;;;;;5095281;28;20016;-79
2020/12/11 01:52:32;;;;;;;17.70;11.57;;;1.40;90.40;;;;;;5057331;28;20037;-79
2020/12/11 01:54:57;;;;;;;19.35;12.65;;;1.30;90.40;;;;;;5102249;28;20056;-80
2020/12/11 01:57:29;;;;;;;17.58;11.05;;;1.40;90.50;;;;;;5076555;28;20025;-79
2020/12/11 01:59:58;;;;;;;20.33;12.52;;;1.40;90.50;;;;;;5085062;28;20032;-79
2020/12/11 02:02:26;;;;;;;20.35;12.70;;;1.40;90.40;;;;;;5079901;28;20032;-79
2020/12/11 02:04:52;;;;;;;21.40;13.55;;;1.30;90.40;;;;;;5110885;28;20051;-80
2020/12/11 02:07:18;;;;;;;19.75;12.60;;;1.30;90.40;;;;;;5076718;28;20066;-79
2020/12/11 02:09:44;;;;;;;18.85;12.95;;;1.30;90.50;;;;;;5077486;28;20031;-79
2020/12/11 02:12:10;;;;;;;21.35;13.48;;;1.30;90.50;;;;;;5098327;28;20028;-79
2020/12/11 02:14:36;;;;;;;22.02;14.05;;;1.30;90.50;;;;;;5095363;28;20031;-79
2020/12/11 02:17:06;;;;;;;22.45;13.55;;;1.30;90.40;;;;;;5077238;28;20035;-79
2020/12/11 02:19:33;;;;;;;19.35;12.52;;;1.30;90.50;;;;;;5094689;28;20587;-79
2020/12/11 02:22:04;;;;;;;18.95;13.57;;;1.20;90.40;;;;;;5094128;28;20173;-79
2020/12/11 02:24:29;;;;;;;20.35;13.00;;;1.20;90.40;;;;;;5081441;28;20519;-80
2020/12/11 02:26:56;;;;;;;18.75;12.90;;;1.20;90.40;;;;;;5085711;28;20036;-80
2020/12/11 02:29:22;;;;;;;18.35;12.88;;;1.20;90.40;;;;;;5057038;28;20393;-84
2020/12/11 02:31:48;;;;;;;17.45;11.30;;;1.20;90.40;;;;;;5075258;28;20032;-83
2020/12/11 02:34:13;;;;;;;18.50;12.32;;;1.20;90.40;;;;;;5104413;28;20034;-84
2020/12/11 02:36:39;;;;;;;18.55;12.85;;;1.20;90.40;;;;;;5076883;28;20032;-84
2020/12/11 02:39:04;;;;;;;18.70;12.40;;;1.20;90.40;;;;;;5077389;28;20033;-84
2020/12/11 02:41:30;;;;;;;18.40;12.23;;;1.20;90.40;;;;;;5060549;28;20408;-83
2020/12/11 02:43:56;;;;;;;19.05;12.70;;;1.20;90.40;;;;;;5076952;28;20028;-83
2020/12/11 02:46:21;;;;;;;16.42;11.15;;;1.20;90.70;;;;;;5056056;28;20025;-84
2020/12/11 02:48:47;;;;;;;17.92;12.38;;;1.20;90.40;;;;;;5098190;28;20037;-84
2020/12/11 02:51:12;;;;;;;16.60;11.75;;;1.20;90.40;;;;;;5090500;28;20033;-83
2020/12/11 02:53:39;;;;;;;17.95;12.00;;;1.20;90.40;;;;;;5109026;28;20170;-84
2020/12/11 02:56:05;;;;;;;18.15;12.27;;;1.20;90.40;;;;;;5060432;28;20039;-84
2020/12/11 02:58:30;;;;;;;15.30;11.10;;;1.20;90.40;;;;;;5060198;28;20031;-84
2020/12/11 03:00:56;;;;;;;19.02;12.18;;;1.20;90.40;;;;;;5068823;28;20111;-84
2020/12/11 03:03:22;;;;;;;19.27;13.10;;;1.20;90.50;;;;;;5076689;28;20024;-83
2020/12/11 03:05:47;;;;;;;18.10;12.60;;;1.10;90.40;;;;;;5077048;28;20078;-84
2020/12/11 03:08:13;;;;;;;19.63;12.63;;;1.10;90.70;;;;;;5077072;28;20024;-83
2020/12/11 03:10:39;;;;;;;18.95;12.15;;;1.10;90.40;;;;;;5059637;28;20132;-84
2020/12/11 03:13:04;;;;;;;18.83;12.57;;;1.10;90.40;;;;;;5091112;28;20530;-84
2020/12/11 03:15:30;;;;;;;19.65;12.63;;;1.10;90.50;;;;;;5059643;28;20047;-83
2020/12/11 03:17:55;;;;;;;17.63;11.80;;;1.10;90.50;;;;;;5059554;28;20035;-83
2020/12/11 03:20:24;;;;;;;19.00;12.25;;;1.10;90.50;;;;;;5059331;28;20078;-84
2020/12/11 03:22:53;;;;;;;16.02;11.68;;;1.10;90.50;;;;;;5076016;28;20039;-79
2020/12/11 03:25:19;;;;;;;18.13;12.50;;;1.10;90.50;;;;;;5058867;28;20059;-79
2020/12/11 03:27:45;;;;;;;20.17;12.50;;;1.00;90.50;;;;;;5074863;28;20502;-79
2020/12/11 03:30:11;;;;;;;21.27;13.32;;;1.00;90.50;;;;;;5075481;28;20032;-79
2020/12/11 03:32:38;;;;;;;18.33;11.95;;;1.10;90.60;;;;;;5075219;28;20035;-78
2020/12/11 03:35:04;;;;;;;18.17;12.75;;;1.00;90.50;;;;;;5072206;28;20025;-79
2020/12/11 03:37:30;;;;;;;18.10;11.93;;;1.00;90.60;;;;;;5089417;28;20111;-79
2020/12/11 03:39:55;;;;;;;17.52;11.95;;;1.00;90.50;;;;;;5090729;28;20115;-79
2020/12/11 03:42:21;;;;;;;17.38;11.88;;;1.00;90.50;;;;;;5093149;28;20084;-79
2020/12/11 03:44:47;;;;;;;17.98;12.25;;;1.00;90.50;;;;;;5066333;28;20028;-79
2020/12/11 03:47:12;;;;;;;19.25;13.02;;;1.00;90.50;;;;;;5073432;28;20028;-79
2020/12/11 03:49:38;;;;;;;17.42;12.68;;;1.00;90.60;;;;;;5067789;28;20067;-79
2020/12/11 03:52:03;;;;;;;18.58;12.90;;;0.90;90.60;;;;;;5073581;28;20134;-79
2020/12/11 03:54:29;;;;;;;19.83;12.95;;;0.90;90.50;;;;;;5071490;28;20161;-80
2020/12/11 03:56:54;;;;;;;20.83;13.60;;;0.90;90.50;;;;;;5092231;28;20038;-80
2020/12/11 03:59:20;;;;;;;18.63;12.65;;;0.90;90.50;;;;;;5089264;28;20392;-79
2020/12/11 04:01:46;;;;;;;19.05;11.77;;;0.90;90.60;;;;;;5055475;28;20028;-80
2020/12/11 04:04:11;;;;;;;18.35;12.25;;;0.90;90.60;;;;;;5063019;28;20024;-79
2020/12/11 04:06:37;;;;;;;20.52;12.82;;;0.90;90.60;;;;;;5065030;28;20086;-80
2020/12/11 04:09:04;;;;;;;18.75;12.18;;;0.90;90.60;;;;;;5069531;28;20503;-80
2020/12/11 04:11:29;;;;;;;19.40;12.85;;;0.90;90.60;;;;;;5070953;28;20032;-79
2020/12/11 04:13:55;;;;;;;17.80;12.32;;;0.90;90.60;;;;;;5088906;28;20073;-80
2020/12/11 04:16:21;;;;;;;18.48;12.95;;;1.00;90.60;;;;;;5068676;28;20033;-79
2020/12/11 04:18:46;;;;;;;20.15;13.52;;;0.90;90.50;;;;;;5079289;28;20113;-80
2020/12/11 04:21:13;;;;;;;21.90;14.38;;;0.90;90.50;;;;;;5058164;28;20477;-80
2020/12/11 04:23:40;;;;;;;19.98;13.15;;;0.90;90.50;;;;;;5064180;28;20081;-79
2020/12/11 04:26:06;;;;;;;23.73;15.23;;;1.00;90.50;;;;;;5054900;28;20029;-79
2020/12/11 04:28:31;;;;;;;20.38;13.15;;;1.00;90.50;;;;;;5068331;28;20039;-80
2020/12/11 04:30:57;;;;;;;19.90;14.02;;;1.00;90.50;;;;;;5077029;28;20112;-80
2020/12/11 04:33:23;;;;;;;20.58;14.38;;;1.00;90.50;;;;;;5066985;28;20028;-80
2020/12/11 04:35:48;;;;;;;22.52;14.05;;;1.00;90.80;;;;;;5076652;28;20032;-79
2020/12/11 04:38:14;;;;;;;22.63;15.07;;;1.00;90.50;;;;;;5053916;28;20017;-79
2020/12/11 04:40:39;;;;;;;21.67;13.65;;;1.00;90.50;;;;;;5102843;28;20048;-80
2020/12/11 04:43:09;;;;;;;20.65;13.98;;;1.00;90.50;;;;;;5055996;28;20048;-79
2020/12/11 04:45:38;;;;;;;21.10;13.82;;;1.00;90.50;;;;;;5107816;28;20455;-79
2020/12/11 04:48:06;;;;;;;22.90;13.70;;;1.00;90.50;;;;;;5082992;28;20036;-79
2020/12/11 04:50:33;;;;;;;21.70;13.95;;;1.10;90.50;;;;;;5060213;28;20025;-79
2020/12/11 04:52:59;;;;;;;19.27;13.20;;;1.10;90.50;;;;;;5073810;28;20128;-79
2020/12/11 04:55:26;;;;;;;20.48;13.68;;;1.00;90.40;;;;;;5079526;28;20036;-79
2020/12/11 04:57:53;;;;;;;24.17;15.20;;;1.10;90.50;;;;;;5084382;28;20031;-79
2020/12/11 05:00:23;;;;;;;24.13;14.95;;;1.00;90.40;;;;;;5076241;28;20038;-79
2020/12/11 05:02:49;;;;;;;24.17;15.82;;;1.10;90.50;;;;;;5077444;28;20035;-79
2020/12/11 05:05:16;;;;;;;21.25;14.45;;;1.10;90.40;;;;;;5061630;28;20445;-80
2020/12/11 05:07:43;;;;;;;21.77;14.48;;;1.10;90.50;;;;;;5063932;28;20029;-79
2020/12/11 05:10:10;;;;;;;19.77;13.80;;;1.10;90.40;;;;;;5093247;28;20063;-79
2020/12/11 05:12:36;;;;;;;23.25;15.00;;;1.10;90.40;;;;;;5078131;28;20036;-79
2020/12/11 05:15:10;;;;;;;22.70;15.10;;;1.20;90.70;;;;;;5071321;28;20504;-79
2020/12/11 05:17:42;;;;;;;25.20;14.80;;;1.20;90.40;;;;;;5063169;28;20404;-79
2020/12/11 05:20:10;;;;;;;21.60;14.40;;;1.20;90.40;;;;;;5075344;28;20082;-79
2020/12/11 05:22:37;;;;;;;23.42;14.93;;;1.20;90.40;;;;;;5077279;28;20089;-83
2020/12/11 05:25:07;;;;;;;24.85;16.25;;;1.20;90.30;;;;;;5100111;28;20021;-83
2020/12/11 05:27:37;;;;;;;25.17;15.07;;;1.30;90.30;;;;;;5112621;28;20028;-84
2020/12/11 05:30:12;;;;;;;24.80;15.85;;;1.30;90.30;;;;;;5101962;28;20023;-83
2020/12/11 05:32:39;;;;;;;25.65;15.13;;;1.30;90.30;;;;;;5078137;28;20028;-84
2020/12/11 05:35:18;;;;;;;21.35;13.93;;;1.40;90.30;;;;;;5079019;28;20146;-84
2020/12/11 05:37:48;;;;;;;21.73;14.70;;;1.30;90.20;;;;;;5074048;28;20503;-79
2020/12/11 05:40:39;;;;;;;22.30;14.88;;;1.40;90.30;;;;;;5077936;28;20376;-79
2020/12/11 05:43:17;;;;;;;22.15;14.85;;;1.40;90.30;;;;;;5061394;28;20032;-79
2020/12/11 05:45:56;;;;;;;23.60;14.48;;;1.40;90.30;;;;;;5089727;28;20020;-79
2020/12/11 05:48:22;;;;;;;;;;;1.40;90.30;;;;;;5061128;28;20028;-79
2020/12/11 05:50:48;;;;;;;22.60;13.65;;;1.40;90.20;;;;;;5095368;28;19952;-79
2020/12/11 05:53:14;;;;;;;20.40;13.23;;;1.40;90.20;;;;;;5094597;28;20024;-79
2020/12/11 05:55:40;;;;;;;20.15;13.05;;;1.40;90.20;;;;;;5061217;28;20035;-79
2020/12/11 05:58:10;;;;;;;22.48;13.82;;;1.40;90.50;;;;;;5060836;28;20053;-79
2020/12/11 06:00:38;;;;;;;21.42;14.38;;;1.40;90.20;;;;;;5071923;28;20035;-79
2020/12/11 06:03:06;;;;;;;23.30;14.98;;;1.40;90.20;;;;;;5077808;28;20016;-79
2020/12/11 06:05:37;;;;;;;22.08;14.82;;;1.40;90.20;;;;;;5077685;28;20027;-84
2020/12/11 06:08:08;;;;;;;21.23;14.15;;;1.40;90.10;;;;;;5097753;28;20110;-83
2020/12/11 06:10:34;;;;;;;20.00;14.45;;;1.40;90.10;;;;;;5095471;28;20028;-84
2020/12/11 06:13:03;;;;;;;23.20;14.82;;;1.40;90.20;;;;;;5077582;28;20035;-83
2020/12/11 06:15:42;;;;;;;21.25;13.65;;;1.40;90.40;;;;;;5095930;28;20028;-83
2020/12/11 06:18:21;;;;;;;21.63;14.18;;;1.40;90.20;;;;;;5077521;28;20051;-83
2020/12/11 06:20:48;;;;;;;21.92;15.27;;;1.40;90.20;;;;;;5078632;28;20017;-83
2020/12/11 06:23:27;;;;;;;21.02;13.77;;;1.40;90.20;;;;;;5095765;28;20551;-84
2020/12/11 06:25:55;;;;;;;23.73;14.77;;;1.40;90.20;;;;;;5072217;28;20127;-83
2020/12/11 06:28:40;;;;;;;21.90;14.57;;;1.40;90.20;;;;;;5106617;28;20461;-83
2020/12/11 06:31:08;;;;;;;24.45;14.63;;;1.40;90.20;;;;;;5094246;28;20348;-84
2020/12/11 06:33:35;;;;;;;21.95;14.65;;;1.40;90.20;;;;;;5077441;28;20627;-84
2020/12/11 06:36:02;;;;;;;24.25;14.65;;;1.40;90.20;;;;;;5077221;28;20422;-83
2020/12/11 06:38:55;;;;;;;22.30;14.45;;;1.40;90.20;;;;;;5076896;28;20101;-83
2020/12/11 06:41:26;;;;;;;19.23;13.25;;;1.40;90.20;;;;;;5073562;28;20045;-83
2020/12/11 06:43:53;;;;;;;19.10;12.63;;;1.40;90.20;;;;;;5083665;28;20032;-83
2020/12/11 06:46:20;;;;;;;24.98;14.60;;;1.40;90.10;;;;;;5076970;28;20024;-79
2020/12/11 06:49:05;;;;;;;23.55;14.38;;;1.40;90.20;;;;;;5091776;28;20031;-79
2020/12/11 06:51:32;;;;;;;22.27;14.80;;;1.40;90.20;;;;;;5054956;28;20037;-79
2020/12/11 06:53:58;;;;;;;20.73;13.80;;;1.40;90.10;;;;;;5084712;28;20093;-79
2020/12/11 06:56:44;;;;;;;23.98;14.80;;;1.50;90.10;;;;;;5055808;28;20101;-78
2020/12/11 06:59:40;;;;;;;26.17;15.70;;;1.50;90.20;;;;;;5054724;28;20020;-79
2020/12/11 07:02:10;;;;;;;25.27;14.75;;;1.50;90.10;;;;;;5089661;28;20036;-79
2020/12/11 07:04:43;;;;;;;22.33;14.13;;;1.50;90.10;;;;;;5080736;28;20031;-79
2020/12/11 07:07:09;;;;;;;27.05;15.70;;;1.50;90.10;;;;;;5075715;28;20055;-79
2020/12/11 07:09:46;;;;;;;23.02;14.73;;;1.50;90.10;;;;;;5075739;28;20081;-78
2020/12/11 07:12:14;;;;;;;21.67;15.00;;;1.60;90.10;;;;;;5105525;28;20070;-79
2020/12/11 07:14:41;;;;;;;19.70;11.33;;;1.60;90.10;;;;;;5076089;28;20395;-76
2020/12/11 07:17:06;;;;;;;22.92;14.88;;;1.60;90.10;;;;;;5075823;28;20285;-77
2020/12/11 07:19:36;;;;;;;25.23;15.23;;;1.60;90.00;;;;;;5076125;28;20024;-78
2020/12/11 07:22:03;;;;;;;22.60;14.27;;;1.70;90.10;;;;;;5076402;28;20073;-79
2020/12/11 07:24:30;;;;;;;24.48;14.23;;;1.70;90.10;;;;;;5089674;28;20027;-78
2020/12/11 07:27:00;;;;;;;26.52;14.35;;;1.80;90.10;;;;;;5104241;28;20028;-78
2020/12/11 07:29:26;;;;;;;27.25;15.77;;;1.80;90.00;;;;;;5075843;28;20033;-78
2020/12/11 07:31:52;;;;;;;24.10;14.93;;;1.80;90.00;;;;;;5093764;28;20031;-78
2020/12/11 07:34:19;;;;;;;22.33;15.32;;;1.80;90.00;;;;;;5075672;28;20388;-78
2020/12/11 07:36:46;;;;;;;22.10;14.88;;;1.80;90.20;;;;;;5093617;28;20020;-78
2020/12/11 07:39:16;;;;;;;22.83;14.23;;;1.90;90.00;;;;;;5075827;28;20396;-78
2020/12/11 07:41:45;;;;;;;21.15;14.13;;;2.00;90.00;;;;;;5093423;28;20483;-78
2020/12/11 07:44:24;;;;;;;22.50;13.63;;;2.00;89.90;;;;;;5093821;28;20028;-78
2020/12/11 07:46:51;;;;;;;22.63;14.60;;;2.00;89.90;;;;;;5093620;28;20273;-78
2020/12/11 07:49:17;;;;;;;21.90;14.40;;;2.00;90.20;;;;;;5089985;28;20028;-77
2020/12/11 07:51:50;;;;;;;20.48;13.85;;;2.10;90.00;;;;;;5075530;28;20388;-78
2020/12/11 07:54:17;;;;;;;20.95;13.60;;;2.00;89.90;;;;;;5059418;28;20086;-78
2020/12/11 07:56:42;;;;;;;22.52;15.20;;;2.10;89.90;;;;;;5075613;28;20062;-78
2020/12/11 07:59:15;;;;;;;21.02;13.98;;;2.10;89.90;;;;;;5075477;28;20048;-78
2020/12/11 08:01:47;;;;;;;19.85;13.43;;;2.10;89.80;;;;;;5075422;28;20028;-78
2020/12/11 08:04:15;;;;;;;18.98;12.90;;;2.10;89.80;;;;;;5075521;28;20114;-78
2020/12/11 08:06:41;;;;;;;21.33;13.80;;;2.20;89.70;;;;;;5058881;28;20069;-78
2020/12/11 08:09:13;;;;;;;20.27;13.73;;;2.20;89.70;;;;;;5075169;28;20036;-78
2020/12/11 08:11:43;;;;;;;20.27;12.38;;;2.20;89.60;;;;;;5075185;28;20480;-78
2020/12/11 08:14:09;;;;;;;22.77;14.07;;;2.20;89.60;;;;;;5093455;28;20048;-82
2020/12/11 08:16:35;;;;;;;19.02;12.68;;;2.20;89.60;;;;;;5075539;28;20417;-81
2020/12/11 08:19:02;;;;;;;19.35;12.88;;;2.20;90.10;;;;;;5092035;28;20127;-82
2020/12/11 08:21:29;;;;;;;19.60;13.13;;;2.30;89.70;;;;;;5093437;28;20103;-82
2020/12/11 08:23:55;;;;;;;19.58;13.40;;;2.30;89.70;;;;;;5075242;28;20020;-82
2020/12/11 08:26:21;;;;;;;19.85;13.45;;;2.30;90.10;;;;;;5075284;28;20020;-82
2020/12/11 08:28:49;;;;;;;21.45;13.20;;;2.30;89.60;;;;;;5058520;28;20032;-82
2020/12/11 08:31:23;;;;;;;18.52;12.65;;;2.30;89.60;;;;;;5093388;28;20418;-82
2020/12/11 08:34:05;;;;;;;20.23;12.30;;;2.40;89.70;;;;;;5096301;28;20521;-82
2020/12/11 08:36:33;;;;;;;21.27;13.40;;;2.40;89.70;;;;;;5097616;28;20031;-83
2020/12/11 08:39:15;;;;;;;16.50;11.50;;;2.40;89.50;;;;;;5079157;28;20055;-83
2020/12/11 08:42:01;;;;;;;18.17;13.07;;;2.40;89.60;;;;;;5078775;28;20048;-83
2020/12/11 08:44:47;;;;;;;21.35;13.27;;;2.40;89.50;;;;;;5097319;28;20481;-82
2020/12/11 08:47:47;;;;;;;18.75;11.90;;;2.50;89.50;;;;;;5081194;28;20062;-82
2020/12/11 08:50:33;;;;;;;17.55;11.98;;;2.50;89.50;;;;;;5082891;28;20028;-82
2020/12/11 08:53:04;;;;;;;17.40;11.55;;;2.50;89.50;;;;;;5106538;28;20058;-83
2020/12/11 08:55:30;;;;;;;18.33;12.70;;;2.50;90.00;;;;;;5067532;28;20086;-83
2020/12/11 08:57:55;;;;;;;17.75;11.90;;;2.60;89.40;;;;;;5091555;28;20406;-83
2020/12/11 09:00:21;;;;;;;18.88;12.82;;;2.60;89.40;;;;;;5113011;28;20024;-83
2020/12/11 09:02:46;;;;;;;17.73;12.55;;;2.60;89.30;;;;;;5078853;28;20024;-83
2020/12/11 09:05:12;;;;;;;16.17;11.95;;;2.60;89.20;;;;;;5095108;28;20047;-83
2020/12/11 09:07:38;;;;;;;16.17;11.52;;;2.70;89.30;;;;;;5092528;28;20032;-84
2020/12/11 09:10:05;;;;;;;16.77;12.02;;;2.70;89.20;;;;;;5092552;28;20024;-83
2020/12/11 09:12:31;;;;;;;16.50;11.68;;;2.80;89.30;;;;;;5058750;28;20039;-81
2020/12/11 09:14:57;;;;;;;17.17;11.95;;;2.80;89.20;;;;;;5056967;28;20434;-82
2020/12/11 09:17:23;;;;;;;18.95;12.32;;;2.80;89.10;;;;;;5096735;28;20103;-82
2020/12/11 09:19:48;;;;;;;17.98;11.65;;;2.80;89.10;;;;;;5078661;28;20477;-78
2020/12/11 09:22:14;;;;;;;17.70;12.38;;;2.80;89.00;;;;;;5061239;28;20726;-78
2020/12/11 09:24:39;;;;;;;18.90;12.55;;;2.90;89.00;;;;;;5078308;28;20081;-78
2020/12/11 09:27:06;;;;;;;18.65;12.30;;;2.90;89.00;;;;;;5061751;28;20036;-82
2020/12/11 09:29:36;;;;;;;18.58;12.35;;;3.00;89.00;;;;;;5097552;28;20483;-82
2020/12/11 09:32:04;;;;;;;16.50;11.80;;;3.00;88.90;;;;;;5096573;28;20058;-82
2020/12/11 09:34:32;;;;;;;18.27;12.40;;;3.10;88.80;;;;;;5096498;28;20020;-77
2020/12/11 09:36:59;;;;;;;16.83;11.50;;;3.10;88.80;;;;;;5095329;28;20031;-81
2020/12/11 09:39:25;;;;;;;16.70;12.10;;;3.10;88.70;;;;;;5062061;28;20028;-81
2020/12/11 09:41:59;;;;;;;17.50;11.85;;;3.20;88.70;;;;;;5096230;28;20055;-81
2020/12/11 09:44:48;;;;;;;16.17;11.77;;;3.20;88.70;;;;;;5094769;28;20036;-81
2020/12/11 09:52:58;;;;;;;18.40;12.38;;;3.40;88.50;;;;;;5059292;28;20033;-81
2020/12/11 09:54:59;;;;;;;17.60;11.25;;;3.40;88.40;;;;;;5064965;28;20037;-81
2020/12/11 09:57:25;;;;;;;17.63;12.30;;;3.50;88.30;;;;;;5057983;28;20029;-82
2020/12/11 09:59:53;;;;;;;18.63;11.43;;;3.50;88.20;;;;;;5074387;28;20393;-81
2020/12/11 10:05:04;;;;;;;17.50;12.05;;;3.70;88.10;;;;;;5071310;28;20043;-81
2020/12/11 10:07:30;;;;;;;18.48;11.43;;;3.70;87.90;;;;;;5091440;28;20029;-81
2020/12/11 10:09:55;;;;;;;15.60;11.40;;;3.80;87.90;;;;;;5074273;28;20035;-82
2020/12/11 10:12:24;;;;;;;17.50;11.98;;;3.90;87.80;;;;;;5076530;28;20032;-81
2020/12/11 10:17:42;;;;;;;15.57;11.10;;;3.90;87.80;;;;;;5091590;28;20028;-77
2020/12/11 10:20:07;;;;;;;16.65;11.23;;;3.90;87.70;;;;;;5077473;28;20024;-77
2020/12/11 10:22:33;;;;;;;15.98;10.77;;;3.90;87.80;;;;;;5077409;28;20977;-77
2020/12/11 10:24:59;;;;;;;16.05;11.45;;;4.00;87.90;;;;;;5077524;28;20097;-77
2020/12/11 10:27:25;;;;;;;17.73;12.18;;;3.90;87.90;;;;;;5065694;28;20116;-76
2020/12/11 10:29:50;;;;;;;16.05;11.20;;;3.90;87.90;;;;;;5075170;28;20075;-77
2020/12/11 10:32:16;;;;;;;18.98;12.13;;;3.90;88.00;;;;;;5085245;28;20115;-77
2020/12/11 10:34:42;;;;;;;14.82;11.07;;;3.90;88.00;;;;;;5111428;28;20042;-78
2020/12/11 10:37:09;;;;;;;16.63;10.75;;;3.90;88.10;;;;;;5060809;28;20387;-79
2020/12/11 10:39:35;;;;;;;16.42;11.27;;;3.90;88.10;;;;;;5095657;28;20020;-80
2020/12/11 10:42:02;;;;;;;17.88;12.20;;;3.90;88.20;;;;;;5110557;28;20075;-80
2020/12/11 10:44:28;;;;;;;14.52;10.90;;;3.90;88.30;;;;;;5110846;28;20032;-81
2020/12/11 10:46:54;;;;;;;15.18;10.38;;;3.90;88.30;;;;;;5110730;28;20035;-78
2020/12/11 10:49:21;;;;;;;13.05;10.23;;;3.90;88.30;;;;;;5094784;28;20069;-78
2020/12/11 10:51:47;;;;;;;17.85;11.45;;;3.90;88.30;;;;;;5076616;28;20020;-79
2020/12/11 10:54:14;;;;;;;13.88;10.30;;;3.90;88.30;;;;;;5094778;28;20483;-79
2020/12/11 10:56:41;;;;;;;15.32;10.95;;;3.90;88.40;;;;;;5079641;28;20430;-79
2020/12/11 10:59:07;;;;;;;15.05;10.73;;;3.90;88.50;;;;;;5074445;28;20449;-78
2020/12/11 11:01:33;;;;;;;18.02;10.70;;;3.90;88.70;;;;;;5056793;28;20039;-79
2020/12/11 11:03:58;;;;;;;16.20;10.82;;;3.90;88.90;;;;;;5056759;28;20473;-79
2020/12/11 11:06:29;;;;;;;14.70;10.85;;;3.90;89.20;;;;;;5073131;28;20037;-78
2020/12/11 11:09:08;;;;;;;18.30;11.90;;;3.90;89.30;;;;;;5073757;28;20029;-79
2020/12/11 11:11:38;;;;;;;;;;;3.90;89.70;;;;;;5056639;28;20388;-78
2020/12/11 11:30:03;;;;;;;14.48;10.48;;;4.00;90.20;;;;;;5001124;28;20026;-78
2020/12/11 11:32:28;;;;;;;17.65;11.93;;;4.10;90.20;;;;;;4995703;28;20057;-78
2020/12/11 11:34:54;;;;;;;14.10;10.60;;;4.20;90.20;;;;;;5047872;28;20071;-78
2020/12/11 11:37:21;;;;;;;13.98;10.68;;;4.30;90.20;;;;;;5059269;28;20028;-78
2020/12/11 11:39:48;;;;;;;14.60;10.05;;;4.30;90.20;;;;;;5076219;28;20119;-77
2020/12/11 11:42:13;;;;;;;14.55;10.18;;;4.40;90.10;;;;;;5092865;28;20040;-80
2020/12/11 11:47:24;;;;;;;14.00;9.38;;;4.40;90.00;;;;;;5078919;28;20039;-80
2020/12/11 11:54:50;;;;;;;12.43;9.30;;;4.40;90.00;;;;;;5076973;28;20714;-82
2020/12/11 11:57:15;;;;;;;11.38;8.85;;;4.40;90.10;;;;;;5087625;28;20110;-82
2020/12/11 11:59:42;;;;;;;13.40;8.95;;;4.40;90.10;;;;;;5058637;28;20024;-82
2020/12/11 12:02:08;;;;;;;12.25;9.02;;;4.40;90.30;;;;;;5088310;28;20049;-82
2020/12/11 12:04:34;;;;;;;10.20;8.10;;;4.50;90.00;;;;;;5126898;27;20024;-82
2020/12/11 12:06:59;;;;;;;10.60;8.05;;;4.50;90.00;;;;;;5093111;28;20021;-82
2020/12/11 12:09:25;;;;;;;10.98;8.15;;;4.60;90.00;;;;;;5058613;28;20054;-82
2020/12/11 12:11:51;;;;;;;9.88;7.40;;;4.60;89.90;;;;;;5075195;28;20036;-83
2020/12/11 12:14:16;;;;;;;11.32;8.57;;;4.70;89.80;;;;;;5066976;28;20507;-82
2020/12/11 12:16:43;;;;;;;11.68;7.97;;;4.70;89.60;;;;;;5075335;28;20028;-82
2020/12/11 12:19:17;;;;;;;10.00;8.15;;;4.80;89.50;;;;;;5093415;28;20450;-82
2020/12/11 12:29:35;;;;;;;12.63;8.18;;;4.90;89.10;;;;;;5071753;28;20082;-82
2020/12/11 12:32:10;;;;;;;8.82;6.95;;;4.90;89.00;;;;;;5073743;28;20028;-82
2020/12/11 12:40:06;;;;;;;7.80;6.72;;;5.00;88.80;;;;;;5077757;28;20040;-82
2020/12/11 12:45:05;;;;;;;8.35;6.70;;;5.10;88.70;;;;;;5093109;28;20111;-82
2020/12/11 12:47:31;;;;;;;8.50;6.55;;;5.10;88.60;;;;;;5075068;28;20024;-81
2020/12/11 12:49:57;;;;;;;9.63;6.80;;;5.10;88.60;;;;;;5058474;28;20039;-81
2020/12/11 12:52:22;;;;;;;11.30;6.63;;;5.10;88.50;;;;;;5041843;28;20034;-80
2020/12/11 12:54:48;;;;;;;7.28;5.72;;;5.20;88.60;;;;;;5075068;28;20164;-80
2020/12/11 13:00:45;;;;;;;7.75;6.20;;;5.30;88.50;;;;;;5030597;28;20022;-80
2020/12/11 13:05:32;;;;;;;9.37;6.73;;;5.30;88.50;;;;;;5075565;28;20118;-81
2020/12/11 13:08:02;;;;;;;10.68;6.55;;;5.30;88.50;;;;;;5074956;28;20123;-83
2020/12/11 13:10:27;;;;;;;;;;;5.30;88.50;;;;;;5075457;28;20032;-82
2020/12/11 13:12:53;;;;;;;7.55;5.93;;;5.30;88.50;;;;;;5091653;28;20030;-83
2020/12/11 13:15:19;;;;;;;14.00;5.97;;;5.30;88.70;;;;;;5074348;28;20032;-83
2020/12/11 13:17:45;;;;;;;8.07;5.75;;;5.30;88.90;;;;;;5085589;28;20020;-83
2020/12/11 13:20:13;;;;;;;8.48;6.45;;;5.30;89.00;;;;;;5094522;28;20115;-83
2020/12/11 13:27:49;;;;;;;7.22;5.80;;;5.20;89.40;;;;;;5116538;28;20027;-83
2020/12/11 13:30:15;;;;;;;9.63;6.10;;;5.20;89.40;;;;;;5098360;28;20034;-83
2020/12/11 13:32:41;;;;;;;8.35;6.20;;;5.10;89.60;;;;;;5107550;28;20077;-83
2020/12/11 13:35:07;;;;;;;7.35;5.65;;;5.10;89.70;;;;;;5061821;28;20032;-83
2020/12/11 13:37:32;;;;;;;9.10;5.53;;;5.10;89.90;;;;;;5061441;28;20035;-80
2020/12/11 13:39:59;;;;;;;8.93;5.68;;;5.10;90.00;;;;;;5061549;28;20052;-79
2020/12/11 13:42:25;;;;;;;7.95;5.72;;;5.10;90.00;;;;;;5077283;28;20048;-80
2020/12/11 13:44:51;;;;;;;6.90;5.90;;;5.10;90.10;;;;;;5077777;28;20085;-80